Time;durP1;ratioP1;P1;durP2;ratioP2;P2;SDS_P1;SDS_P2;PMS_P1;PMS_P2;Temp;Humidity;BMP_temperature;BMP_pressure;BME280_temperature;BME280_humidity;BME280_pressure;Samples;Min_cycle;Max_cycle;Signal;HPM_P1;HPM_P2
2021/10/06 00:01:14;;;;;;;;;;;;;;;17.22;62.21;100666.19;5013677;28;97561;-89
2021/10/06 00:03:41;;;;;;;;;;;;;;;16.95;62.68;100658.13;5012689;28;98990;-90
2021/10/06 00:06:07;;;;;;;;;;;;;;;17.23;61.99;100660.75;4985113;28;98855;-89
2021/10/06 00:08:33;;;;;;;;;;;;;;;17.33;61.77;100677.03;5003322;28;96835;-90
2021/10/06 00:11:00;;;;;;;;;;;;;;;17.34;61.54;100681.41;5009372;28;96580;-90
2021/10/06 00:13:26;;;;;;;;;;;;;;;17.34;61.69;100670.75;5012283;28;97809;-90
2021/10/06 00:15:52;;;;;;;;;;;;;;;17.26;61.82;100673.06;5015789;28;98125;-90
2021/10/06 00:18:22;;;;;;;;;;;;;;;17.27;61.94;100674.75;5017503;28;96038;-90
2021/10/06 00:20:49;;;;;;;;;;;;;;;17.41;61.29;100677.41;5019713;28;95942;-89
2021/10/06 00:23:15;;;;;;;;;;;;;;;17.37;61.38;100691.94;5019608;28;97827;-83
2021/10/06 00:25:41;;;;;;;;;;;;;;;17.29;61.54;100684.41;5019849;28;98106;-87
2021/10/06 00:28:10;;;;;;;;;;;;;;;17.16;62.11;100682.59;5019988;27;96251;-90
2021/10/06 00:30:36;;;;;;;;;;;;;;;17.21;61.68;100684.03;5017933;27;96308;-90
2021/10/06 00:33:02;;;;;;;;;;;;;;;16.86;62.68;100690.75;5013003;28;97769;-90
2021/10/06 00:35:30;;;;;;;;;;;;;;;16.85;62.88;100689.88;5013271;28;97724;-90
2021/10/06 00:37:56;;;;;;;;;;;;;;;17.05;62.24;100685.97;5012605;28;98347;-90
2021/10/06 00:40:22;;;;;;;;;;;;;;;16.64;63.62;100686.72;5013349;28;96637;-91
2021/10/06 00:42:49;;;;;;;;;;;;;;;16.85;62.79;100681.88;5012741;28;98212;-93
2021/10/06 00:45:15;;;;;;;;;;;;;;;16.88;62.89;100683.47;5012964;28;97960;-91
2021/10/06 00:47:44;;;;;;;;;;;;;;;16.83;63.00;100694.47;5016609;28;96480;-90
2021/10/06 00:50:11;;;;;;;;;;;;;;;16.89;62.81;100687.88;5016615;28;96540;-90
2021/10/06 00:52:38;;;;;;;;;;;;;;;17.08;62.18;100691.09;5003180;28;98856;-91
2021/10/06 00:55:05;;;;;;;;;;;;;;;17.00;62.19;100693.41;5003329;28;97806;-91
2021/10/06 00:57:31;;;;;;;;;;;;;;;17.10;62.06;100678.53;5016367;28;97351;-91
2021/10/06 00:59:59;;;;;;;;;;;;;;;16.88;62.50;100684.34;5014016;28;96584;-90
2021/10/06 01:02:26;;;;;;;;;;;;;;;16.95;62.19;100688.34;5001135;28;99286;-90
2021/10/06 01:04:52;;;;;;;;;;;;;;;16.98;62.19;100690.84;5014165;28;97652;-90
2021/10/06 01:07:18;;;;;;;;;;;;;;;16.93;62.44;100702.75;4994265;28;96833;-90
2021/10/06 01:09:46;;;;;;;;;;;;;;;16.85;62.70;100705.91;5013407;28;97351;-91
2021/10/06 01:12:13;;;;;;;;;;;;;;;16.77;62.77;100705.50;5001225;28;97680;-89
2021/10/06 01:14:39;;;;;;;;;;;;;;;16.80;62.92;100708.00;5001128;28;99236;-91
2021/10/06 01:17:06;;;;;;;;;;;;;;;16.87;62.84;100708.47;5009322;28;97033;-87
2021/10/06 01:19:34;;;;;;;;;;;;;;;17.04;62.19;100713.63;5011253;28;96082;-89
2021/10/06 01:22:01;;;;;;;;;;;;;;;17.07;62.11;100711.59;5022311;28;99228;-85
2021/10/06 01:24:28;;;;;;;;;;;;;;;16.79;63.21;100718.75;5022859;28;97713;-80
2021/10/06 01:26:55;;;;;;;;;;;;;;;16.81;62.96;100717.69;5024796;27;96964;-91
2021/10/06 01:29:21;;;;;;;;;;;;;;;17.01;62.28;100705.78;5025362;28;96479;-91
2021/10/06 01:31:48;;;;;;;;;;;;;;;17.11;61.94;100713.13;5015915;28;97881;-92
2021/10/06 01:34:17;;;;;;;;;;;;;;;17.22;61.70;100706.25;5016619;28;97820;-91
2021/10/06 01:36:43;;;;;;;;;;;;;;;16.98;62.25;100706.84;5006974;28;96788;-91
2021/10/06 01:39:11;;;;;;;;;;;;;;;17.17;61.63;100711.88;5013066;28;96700;-91
2021/10/06 01:41:37;;;;;;;;;;;;;;;17.12;61.81;100711.31;5017110;28;98010;-90
2021/10/06 01:44:05;;;;;;;;;;;;;;;17.31;61.33;100709.19;5021499;28;100150;-91
2021/10/06 01:46:31;;;;;;;;;;;;;;;17.31;61.34;100711.88;5022065;28;96336;-90
2021/10/06 01:48:57;;;;;;;;;;;;;;;17.44;60.92;100707.47;5005699;27;96006;-92
2021/10/06 01:51:24;;;;;;;;;;;;;;;17.15;61.33;100711.13;5007851;28;98333;-91
2021/10/06 01:53:53;;;;;;;;;;;;;;;17.36;61.17;100711.56;5002234;28;98047;-86
2021/10/06 01:56:21;;;;;;;;;;;;;;;17.19;61.25;100703.78;5013979;28;96087;-86
2021/10/06 01:58:47;;;;;;;;;;;;;;;17.27;61.29;100709.47;5016661;28;96326;-87
2021/10/06 02:01:13;;;;;;;;;;;;;;;17.21;61.55;100712.53;5021377;28;98330;-86
2021/10/06 02:03:40;;;;;;;;;;;;;;;17.27;61.52;100709.47;5021835;28;97710;-83
2021/10/06 02:06:06;;;;;;;;;;;;;;;17.31;61.33;100711.88;5021870;28;97236;-83
2021/10/06 02:08:32;;;;;;;;;;;;;;;17.11;61.89;100717.63;5003060;28;97692;-83
2021/10/06 02:13:41;;;;;;;;;;;;;;;17.24;61.57;100718.56;5007189;28;96612;-80
2021/10/06 02:16:07;;;;;;;;;;;;;;;16.93;62.44;100721.44;5012692;28;96068;-91
2021/10/06 02:18:34;;;;;;;;;;;;;;;17.40;61.04;100723.75;5002114;28;96032;-88
2021/10/06 02:23:43;;;;;;;;;;;;;;;17.21;61.70;100734.75;5001095;28;98413;-86
2021/10/06 02:26:10;;;;;;;;;;;;;;;16.92;62.28;100744.59;4991906;28;96215;-89
2021/10/06 02:28:36;;;;;;;;;;;;;;;17.16;61.97;100736.00;5020017;28;96034;-86
2021/10/06 02:31:06;;;;;;;;;;;;;;;17.23;61.66;100740.00;5021421;28;99956;-86
2021/10/06 02:33:33;;;;;;;;;;;;;;;17.14;61.84;100747.63;5001888;28;98485;-85
2021/10/06 02:35:59;;;;;;;;;;;;;;;17.36;61.42;100743.63;5002285;28;95922;-77
2021/10/06 02:38:25;;;;;;;;;;;;;;;17.53;60.89;100744.25;5001890;28;95988;-80
2021/10/06 02:40:52;;;;;;;;;;;;;;;17.61;60.57;100751.81;5003452;28;98399;-88
2021/10/06 02:43:40;;;;;;;;;;;;;;;17.67;60.44;100751.41;5016332;28;98109;-89
2021/10/06 02:46:09;;;;;;;;;;;;;;;17.71;60.21;100755.63;5020850;28;97435;-87
2021/10/06 02:48:36;;;;;;;;;;;;;;;17.72;59.94;100759.97;4995026;28;96530;-92
2021/10/06 02:51:02;;;;;;;;;;;;;;;17.62;60.49;100760.69;5010212;28;100312;-92
2021/10/06 02:53:29;;;;;;;;;;;;;;;17.78;60.01;100758.75;5008387;28;97810;-93
2021/10/06 02:55:56;;;;;;;;;;;;;;;17.79;60.14;100755.94;5007667;28;96825;-90
2021/10/06 02:58:23;;;;;;;;;;;;;;;17.77;59.72;100757.03;5006807;28;96588;-91
2021/10/06 03:00:50;;;;;;;;;;;;;;;17.86;59.70;100759.94;5007189;28;97806;-90
2021/10/06 03:03:18;;;;;;;;;;;;;;;17.78;60.04;100772.13;5007578;28;98074;-89
2021/10/06 03:05:45;;;;;;;;;;;;;;;17.85;59.93;100768.91;5019207;28;96693;-83
2021/10/06 03:08:13;;;;;;;;;;;;;;;17.81;59.83;100774.56;4988409;28;96908;-82
2021/10/06 03:10:39;;;;;;;;;;;;;;;17.79;60.33;100769.31;5020696;28;97253;-88
2021/10/06 03:13:05;;;;;;;;;;;;;;;17.89;60.07;100775.81;5020174;28;97805;-89
2021/10/06 03:15:31;;;;;;;;;;;;;;;17.76;60.54;100774.03;5020188;28;95836;-85
2021/10/06 03:20:40;;;;;;;;;;;;;;;17.96;60.10;100780.75;5012239;28;96741;-89
2021/10/06 03:23:06;;;;;;;;;;;;;;;18.01;60.21;100783.97;4989754;28;96784;-89
2021/10/06 03:25:33;;;;;;;;;;;;;;;17.81;60.69;100796.81;4992050;28;96875;-90
2021/10/06 03:27:59;;;;;;;;;;;;;;;17.77;61.08;100794.44;5015813;28;96651;-90
2021/10/06 03:30:27;;;;;;;;;;;;;;;17.88;60.92;100803.47;5002534;28;97665;-89
2021/10/06 03:32:53;;;;;;;;;;;;;;;17.82;61.08;100806.56;5016567;28;97892;-89
2021/10/06 03:35:20;;;;;;;;;;;;;;;17.79;61.07;100824.59;5019243;28;96688;-88
2021/10/06 03:38:01;;;;;;;;;;;;;;;17.87;60.74;100825.81;5013983;28;96479;-84
2021/10/06 03:40:37;;;;;;;;;;;;;;;17.95;60.93;100827.13;5011425;28;100491;-91
2021/10/06 03:43:04;;;;;;;;;;;;;;;17.91;61.03;100843.41;4995640;28;99334;-89
2021/10/06 03:45:38;;;;;;;;;;;;;;;17.89;61.12;100849.78;5000184;28;96904;-90
2021/10/06 03:48:04;;;;;;;;;;;;;;;17.73;61.36;100849.88;4998888;28;96872;-90
2021/10/06 03:50:31;;;;;;;;;;;;;;;17.77;61.67;100853.25;5016737;28;99446;-89
2021/10/06 03:52:59;;;;;;;;;;;;;;;17.88;61.11;100851.59;5017171;28;98104;-89
2021/10/06 03:55:27;;;;;;;;;;;;;;;17.57;61.99;100858.97;5014513;28;96773;-88
2021/10/06 03:57:54;;;;;;;;;;;;;;;17.66;62.00;100863.72;4997185;28;96490;-89
2021/10/06 04:00:21;;;;;;;;;;;;;;;17.83;61.55;100868.91;5015272;28;99278;-82
2021/10/06 04:02:47;;;;;;;;;;;;;;;17.79;61.65;100864.69;5019835;28;97963;-83
2021/10/06 04:05:14;;;;;;;;;;;;;;;17.77;61.58;100870.16;5016846;28;96476;-89
2021/10/06 04:07:40;;;;;;;;;;;;;;;17.91;61.32;100864.78;5002406;28;95994;-89
2021/10/06 04:10:07;;;;;;;;;;;;;;;17.90;61.47;100881.78;5004415;28;97841;-90
2021/10/06 04:12:35;;;;;;;;;;;;;;;18.02;61.02;100882.78;5018041;28;96790;-89
2021/10/06 04:15:03;;;;;;;;;;;;;;;17.81;61.84;100885.03;5017694;28;96270;-89
2021/10/06 04:17:29;;;;;;;;;;;;;;;17.77;61.45;100877.31;5018823;28;96291;-88
2021/10/06 04:19:57;;;;;;;;;;;;;;;17.93;61.34;100880.69;5020249;28;97796;-88
2021/10/06 04:22:24;;;;;;;;;;;;;;;17.95;61.43;100880.63;5005699;28;97534;-88
2021/10/06 04:24:50;;;;;;;;;;;;;;;17.98;61.00;100875.94;5024013;28;95876;-84
2021/10/06 04:27:16;;;;;;;;;;;;;;;18.05;60.98;100887.09;5023873;28;96378;-81
2021/10/06 04:29:44;;;;;;;;;;;;;;;17.90;61.42;100888.94;5023872;28;97788;-82
2021/10/06 04:32:11;;;;;;;;;;;;;;;18.00;61.30;100899.88;5023732;28;98113;-84
2021/10/06 04:34:38;;;;;;;;;;;;;;;17.97;61.26;100900.97;5023987;28;95996;-82
2021/10/06 04:37:07;;;;;;;;;;;;;;;17.87;61.35;100911.34;5024484;28;96002;-91
2021/10/06 04:39:33;;;;;;;;;;;;;;;17.88;61.57;100922.91;5023795;28;96979;-87
2021/10/06 04:41:59;;;;;;;;;;;;;;;17.98;61.28;100915.19;5023887;28;98044;-84
2021/10/06 04:44:25;;;;;;;;;;;;;;;18.03;60.98;100915.75;5024151;28;96447;-88
2021/10/06 04:46:52;;;;;;;;;;;;;;;18.02;61.25;100919.38;5023154;28;96751;-90
2021/10/06 04:49:19;;;;;;;;;;;;;;;17.91;61.20;100930.75;5019694;28;99090;-89
2021/10/06 04:51:46;;;;;;;;;;;;;;;17.96;61.04;100936.66;5020523;28;98054;-90
2021/10/06 04:54:14;;;;;;;;;;;;;;;17.89;61.39;100936.19;5022323;28;96571;-88
2021/10/06 04:56:40;;;;;;;;;;;;;;;17.95;61.02;100939.44;5023555;28;96497;-78
2021/10/06 04:59:09;;;;;;;;;;;;;;;17.99;60.55;100936.44;5023428;28;97845;-82
2021/10/06 05:01:37;;;;;;;;;;;;;;;18.01;60.73;100941.72;5023534;28;99185;-90
2021/10/06 05:04:03;;;;;;;;;;;;;;;17.89;60.87;100946.88;5023655;28;96466;-91
2021/10/06 05:06:31;;;;;;;;;;;;;;;17.99;60.68;100939.13;5023726;28;96412;-88
2021/10/06 05:08:57;;;;;;;;;;;;;;;17.93;60.50;100950.22;5089025;22;97810;-93
2021/10/06 05:11:24;;;;;;;;;;;;;;;17.88;60.82;100955.84;4995419;28;99518;-92
2021/10/06 05:13:50;;;;;;;;;;;;;;;17.99;60.54;100960.50;5024687;22;96806;-90
2021/10/06 05:16:20;;;;;;;;;;;;;;;17.96;60.51;100958.06;5001335;28;96772;-89
2021/10/06 05:18:49;;;;;;;;;;;;;;;17.93;60.29;100967.13;4996798;28;97273;-89
2021/10/06 05:21:15;;;;;;;;;;;;;;;17.80;60.71;100968.81;5020855;22;99243;-77
2021/10/06 05:26:46;;;;;;;;;;;;;;;17.71;60.83;100974.75;5001718;28;96628;-80
2021/10/06 05:29:14;;;;;;;;;;;;;;;17.65;60.94;100980.47;5003216;28;96945;-81
2021/10/06 05:31:41;;;;;;;;;;;;;;;17.66;60.83;100987.53;5001964;28;99538;-88
2021/10/06 05:34:08;;;;;;;;;;;;;;;17.62;60.96;100993.16;5005507;28;95945;-87
2021/10/06 05:36:36;;;;;;;;;;;;;;;17.50;61.19;100998.25;5023422;28;96360;-80
2021/10/06 05:39:06;;;;;;;;;;;;;;;17.52;61.08;101000.84;5015632;28;98974;-91
2021/10/06 05:41:32;;;;;;;;;;;;;;;17.34;61.67;101007.25;5016453;28;97850;-92
2021/10/06 05:44:00;;;;;;;;;;;;;;;17.54;61.27;101005.13;5015415;28;96720;-92
2021/10/06 05:46:27;;;;;;;;;;;;;;;17.60;61.36;101011.91;5017913;28;96942;-90
2021/10/06 05:48:53;;;;;;;;;;;;;;;17.47;61.32;101021.63;5001677;28;98593;-85
2021/10/06 05:51:20;;;;;;;;;;;;;;;17.53;61.16;101021.25;5011558;28;99527;-91
2021/10/06 05:53:48;;;;;;;;;;;;;;;17.49;61.31;101025.94;5015292;28;96588;-91
2021/10/06 05:56:15;;;;;;;;;;;;;;;17.54;61.08;101020.28;5016257;28;96860;-90
2021/10/06 05:58:41;;;;;;;;;;;;;;;17.47;61.05;101019.81;4998587;28;97811;-90
2021/10/06 06:01:09;;;;;;;;;;;;;;;17.58;61.16;101029.88;4981257;28;97453;-91
2021/10/06 06:06:18;;;;;;;;;;;;;;;17.61;60.60;101032.38;5021457;27;95970;-85
2021/10/06 06:08:45;;;;;;;;;;;;;;;17.55;60.82;101032.72;5015853;28;97736;-87
2021/10/06 06:11:11;;;;;;;;;;;;;;;17.67;60.71;101041.81;5009475;28;98016;-90
2021/10/06 06:13:37;;;;;;;;;;;;;;;17.78;60.36;101055.44;5007141;28;96775;-89
2021/10/06 06:16:06;;;;;;;;;;;;;;;17.77;60.13;101049.22;5003828;28;96764;-90
2021/10/06 06:18:36;;;;;;;;;;;;;;;17.70;60.53;101053.22;5014508;28;97982;-88
2021/10/06 06:21:03;;;;;;;;;;;;;;;17.69;60.55;101066.66;5015626;28;97025;-89
2021/10/06 06:23:31;;;;;;;;;;;;;;;17.85;60.00;101065.63;5012315;28;96443;-88
2021/10/06 06:25:58;;;;;;;;;;;;;;;17.80;59.78;101069.53;5014192;27;96678;-87
2021/10/06 06:28:24;;;;;;;;;;;;;;;17.85;59.62;101068.31;5019607;27;98214;-88
2021/10/06 06:33:34;;;;;;;;;;;;;;;17.64;59.49;101074.09;5017535;28;96638;-87
2021/10/06 06:36:04;;;;;;;;;;;;;;;17.69;59.39;101075.53;5011912;28;96641;-88
2021/10/06 06:38:30;;;;;;;;;;;;;;;17.89;58.84;101083.22;4999205;28;97762;-89
2021/10/06 06:40:57;;;;;;;;;;;;;;;17.74;58.89;101094.81;5000464;28;101837;-90
2021/10/06 06:43:24;;;;;;;;;;;;;;;17.91;58.61;101092.03;4991416;28;97160;-89
2021/10/06 06:45:50;;;;;;;;;;;;;;;18.04;58.18;101092.13;5003541;28;96790;-88
2021/10/06 06:48:19;;;;;;;;;;;;;;;18.12;57.72;101087.16;4994712;28;99698;-90
2021/10/06 06:53:34;;;;;;;;;;;;;;;18.02;57.71;101094.03;5064314;22;98308;-88
2021/10/06 06:56:01;;;;;;;;;;;;;;;18.20;56.98;101100.06;4977027;28;97435;-90
2021/10/06 06:58:36;;;;;;;;;;;;;;;18.33;56.83;101106.38;4982494;28;98179;-91
2021/10/06 07:01:03;;;;;;;;;;;;;;;18.19;56.67;101109.03;4988445;28;100549;-89
2021/10/06 07:03:31;;;;;;;;;;;;;;;18.43;56.47;101118.25;4984360;28;96856;-91
2021/10/06 07:05:58;;;;;;;;;;;;;;;18.30;56.21;101111.94;4985194;28;96925;-90
2021/10/06 07:08:33;;;;;;;;;;;;;;;18.32;56.57;101112.66;4983620;28;99152;-87
2021/10/06 07:11:02;;;;;;;;;;;;;;;18.28;56.24;101120.03;4977100;28;98686;-88
2021/10/06 07:13:35;;;;;;;;;;;;;;;18.09;56.53;101130.16;4980436;28;96800;-87
2021/10/06 07:16:03;;;;;;;;;;;;;;;18.22;55.92;101135.59;5010262;28;97204;-88
2021/10/06 07:18:30;;;;;;;;;;;;;;;18.39;55.54;101137.22;4995517;28;97831;-87
2021/10/06 07:20:58;;;;;;;;;;;;;;;18.51;55.28;101142.69;4998260;28;97473;-82
2021/10/06 07:23:33;;;;;;;;;;;;;;;18.17;55.19;101156.44;4996697;28;96715;-91
2021/10/06 07:26:01;;;;;;;;;;;;;;;18.14;54.94;101160.13;4994260;28;98034;-90
2021/10/06 07:28:29;;;;;;;;;;;;;;;18.47;54.89;101153.69;4992103;28;98181;-89
2021/10/06 07:30:56;;;;;;;;;;;;;;;18.59;54.55;101155.63;4992526;28;100044;-89
2021/10/06 07:36:03;;;;;;;;;;;;;;;18.85;53.53;101168.22;4987056;28;96867;-86
2021/10/06 07:38:29;;;;;;;;;;;;;;;18.95;53.55;101181.91;4989320;28;97839;-87
2021/10/06 07:40:55;;;;;;;;;;;;;;;18.69;53.54;101168.34;4989176;28;96969;-86
2021/10/06 07:43:27;;;;;;;;;;;;;;;18.47;53.46;101173.28;4983117;28;96943;-88
2021/10/06 07:45:54;;;;;;;;;;;;;;;18.75;52.99;101176.94;4988263;28;96519;-87
2021/10/06 07:48:21;;;;;;;;;;;;;;;18.77;53.45;101175.06;4987640;28;97634;-88
2021/10/06 07:50:48;;;;;;;;;;;;;;;18.88;52.55;101183.25;4971590;28;97543;-90
2021/10/06 07:53:14;;;;;;;;;;;;;;;18.88;52.35;101183.25;4989785;28;96829;-89
2021/10/06 08:09:51;;;;;;;;;;;;;;;19.28;51.28;101190.47;4985372;28;96375;-83
2021/10/06 08:12:31;;;;;;;;;;;;;;;19.26;50.94;101187.03;5000489;28;97959;-84
2021/10/06 08:14:58;;;;;;;;;;;;;;;19.33;50.75;101201.75;4983183;28;96093;-84
2021/10/06 08:17:40;;;;;;;;;;;;;;;19.24;50.88;101201.47;4998285;28;96058;-80
2021/10/06 08:20:09;;;;;;;;;;;;;;;19.59;50.37;101201.91;5000414;28;98821;-86
2021/10/06 08:22:36;;;;;;;;;;;;;;;19.59;50.15;101205.44;4998988;28;98123;-88
2021/10/06 08:25:04;;;;;;;;;;;;;;;19.73;49.73;101213.44;5000869;28;97490;-79
2021/10/06 08:27:30;;;;;;;;;;;;;;;19.76;49.47;101209.66;5000964;28;96018;-77
2021/10/06 08:29:57;;;;;;;;;;;;;;;19.63;49.94;101216.81;4999765;28;99134;-81
2021/10/06 08:32:27;;;;;;;;;;;;;;;19.89;49.04;101202.53;5000812;28;98007;-83
2021/10/06 08:34:55;;;;;;;;;;;;;;;20.06;48.31;101218.38;5000764;28;96008;-79
2021/10/06 08:37:37;;;;;;;;;;;;;;;20.33;47.31;101226.41;4999936;28;96004;-86
2021/10/06 08:40:07;;;;;;;;;;;;;;;20.08;48.04;101226.31;5000799;28;99046;-80
2021/10/06 08:42:36;;;;;;;;;;;;;;;19.86;48.32;101229.56;4998095;28;99178;-91
2021/10/06 08:45:05;;;;;;;;;;;;;;;19.86;48.95;101229.56;4993426;28;96569;-92
2021/10/06 08:47:32;;;;;;;;;;;;;;;19.98;48.41;101230.56;5115541;22;99749;-89
2021/10/06 08:50:09;;;;;;;;;;;;;;;20.14;47.96;101233.97;5035229;27;100827;-89
2021/10/06 08:52:38;;;;;;;;;;;;;;;20.36;47.90;101241.41;5030557;28;97832;-89
2021/10/06 08:55:21;;;;;;;;;;;;;;;20.35;46.59;101243.25;5033654;27;96621;-89
2021/10/06 09:00:55;;;;;;;;;;;;;;;20.47;46.16;101238.88;5034662;27;97188;-90
2021/10/06 09:03:28;;;;;;;;;;;;;;;20.71;46.49;101249.72;5035192;27;99318;-89
2021/10/06 09:08:58;;;;;;;;;;;;;;;20.69;45.69;101245.31;5030957;27;96882;-82
2021/10/06 09:14:12;;;;;;;;;;;;;;;20.96;45.10;101263.16;5016485;27;96781;-88
2021/10/06 09:16:53;;;;;;;;;;;;;;;21.02;45.10;101266.25;5042055;27;97987;-88
2021/10/06 09:19:38;;;;;;;;;;;;;;;20.57;45.54;101275.72;5026352;27;95935;-89
2021/10/06 09:22:13;;;;;;;;;;;;;;;20.52;44.55;101266.25;5014463;27;97575;-89
2021/10/06 09:24:50;;;;;;;;;;;;;;;20.90;43.80;101269.81;5034350;28;98039;-90
2021/10/06 09:27:18;;;;;;;;;;;;;;;20.90;44.23;101266.28;5031369;28;96709;-87
2021/10/06 09:29:49;;;;;;;;;;;;;;;21.15;44.16;101271.63;5138598;22;98920;-89
2021/10/06 09:32:27;;;;;;;;;;;;;;;21.30;44.13;101278.63;4993546;28;98056;-91
2021/10/06 09:35:06;;;;;;;;;;;;;;;21.30;43.67;101267.03;4997972;28;98219;-91
2021/10/06 09:37:33;;;;;;;;;;;;;;;20.84;44.55;101270.25;4984255;28;96182;-87
2021/10/06 09:40:00;;;;;;;;;;;;;;;20.74;43.61;101268.34;4996031;28;96724;-91
2021/10/06 09:42:28;;;;;;;;;;;;;;;20.58;44.42;101279.25;4991539;28;98514;-88
2021/10/06 09:44:55;;;;;;;;;;;;;;;21.37;43.62;101282.59;4991917;28;98664;-86
2021/10/06 09:47:23;;;;;;;;;;;;;;;21.30;44.08;101275.09;4979160;28;97137;-85
2021/10/06 09:49:55;;;;;;;;;;;;;;;21.57;43.49;101283.84;4992432;28;96865;-85
2021/10/06 09:52:33;;;;;;;;;;;;;;;21.71;42.94;101289.09;4988961;28;99698;-84
2021/10/06 09:55:02;;;;;;;;;;;;;;;21.51;42.60;101284.28;4988472;28;100110;-85
2021/10/06 09:57:30;;;;;;;;;;;;;;;21.50;43.38;101295.16;4993230;28;96667;-88
2021/10/06 09:59:58;;;;;;;;;;;;;;;21.50;42.44;101304.09;4995260;28;97019;-85
2021/10/06 10:02:25;;;;;;;;;;;;;;;21.59;42.86;101308.81;4994495;28;98184;-90
2021/10/06 10:04:51;;;;;;;;;;;;;;;21.58;42.19;101319.66;4979171;28;97941;-89
2021/10/06 10:07:18;;;;;;;;;;;;;;;21.79;41.58;101318.94;4990260;28;98937;-86
2021/10/06 10:09:47;;;;;;;;;;;;;;;21.74;41.55;101326.50;4992139;28;96810;-90
2021/10/06 10:12:15;;;;;;;;;;;;;;;21.60;42.43;101334.69;4987198;28;98297;-87
2021/10/06 10:14:46;;;;;;;;;;;;;;;20.97;42.53;101329.34;4970866;28;100252;-90
2021/10/06 10:17:27;;;;;;;;;;;;;;;21.28;42.12;101328.94;4992643;28;96847;-88
2021/10/06 10:20:21;;;;;;;;;;;;;;;21.43;41.96;101333.25;4996428;28;98051;-88
2021/10/06 10:22:57;;;;;;;;;;;;;;;21.65;42.54;101340.63;4999239;28;100496;-87
2021/10/06 10:25:27;;;;;;;;;;;;;;;22.06;41.34;101326.84;4998571;28;99645;-87
2021/10/06 10:28:08;;;;;;;;;;;;;;;21.74;41.32;101331.00;4999903;28;96475;-86
2021/10/06 10:30:35;;;;;;;;;;;;;;;21.87;41.68;101335.38;4993685;28;96061;-87
2021/10/06 10:33:02;;;;;;;;;;;;;;;22.23;40.75;101330.97;5001544;28;98091;-85
2021/10/06 10:35:34;;;;;;;;;;;;;;;21.67;42.01;101341.34;4999259;28;99251;-88
2021/10/06 10:38:05;;;;;;;;;;;;;;;21.61;42.55;101339.13;4984843;28;96699;-91
2021/10/06 10:40:37;;;;;;;;;;;;;;;22.23;40.56;101339.06;4992844;28;96602;-88
2021/10/06 10:43:08;;;;;;;;;;;;;;;22.09;40.85;101339.22;4994048;28;100902;-86
2021/10/06 10:45:40;;;;;;;;;;;;;;;22.04;41.59;101338.72;4980957;28;98133;-85
2021/10/06 10:48:07;;;;;;;;;;;;;;;21.91;40.66;101338.72;5009189;22;96855;-85
2021/10/06 10:50:45;;;;;;;;;;;;;;;21.48;40.92;101339.13;4974285;28;96880;-88
2021/10/06 10:53:22;;;;;;;;;;;;;;;21.48;41.21;101349.91;4990827;28;99344;-86
2021/10/06 10:55:52;;;;;;;;;;;;;;;21.48;40.28;101357.09;5017898;28;100122;-82
2021/10/06 10:58:32;;;;;;;;;;;;;;;21.37;41.38;101360.56;5122725;22;99975;-87
2021/10/06 11:01:00;;;;;;;;;;;;;;;21.25;41.91;101360.56;4956994;28;96550;-85
2021/10/06 11:03:44;;;;;;;;;;;;;;;21.18;41.91;101367.34;4954723;28;98236;-89
2021/10/06 11:09:30;;;;;;;;;;;;;;;21.13;42.14;101364.09;4949322;28;96752;-88
2021/10/06 11:12:18;;;;;;;;;;;;;;;21.23;41.89;101355.28;4960567;28;96101;-90
2021/10/06 11:17:41;;;;;;;;;;;;;;;20.98;42.22;101361.50;4949179;28;99530;-87
2021/10/06 11:20:08;;;;;;;;;;;;;;;21.32;41.43;101360.03;4953955;28;96655;-90
2021/10/06 11:25:25;;;;;;;;;;;;;;;21.49;40.79;101353.44;4959859;28;96908;-86
2021/10/06 11:28:07;;;;;;;;;;;;;;;21.60;40.65;101355.34;4960359;28;98203;-88
2021/10/06 11:30:49;;;;;;;;;;;;;;;21.27;40.85;101347.84;4960268;28;95946;-88
2021/10/06 11:33:24;;;;;;;;;;;;;;;21.88;39.39;101347.88;4953995;28;96071;-88
2021/10/06 11:35:51;;;;;;;;;;;;;;;21.99;39.26;101357.03;4959551;28;98695;-87
2021/10/06 11:38:19;;;;;;;;;;;;;;;21.59;39.56;101364.41;4960765;28;97610;-89
2021/10/06 11:40:54;;;;;;;;;;;;;;;21.88;39.48;101366.69;4959548;28;96561;-83
2021/10/06 11:48:49;;;;;;;;;;;;;;;21.84;39.50;101370.59;4981975;28;99865;-90
2021/10/06 11:51:16;;;;;;;;;;;;;;;21.66;40.48;101376.47;4996830;28;95906;-90
2021/10/06 11:53:44;;;;;;;;;;;;;;;21.57;40.58;101371.72;4996053;28;96120;-91
2021/10/06 12:07:02;;;;;;;;;;;;;;;22.49;39.36;101377.50;4973599;28;99779;-90
2021/10/06 12:12:17;;;;;;;;;;;;;;;22.37;39.75;101368.50;4996657;28;97592;-91
2021/10/06 12:14:46;;;;;;;;;;;;;;;22.40;39.84;101372.78;4988119;28;96945;-85
2021/10/06 12:17:16;;;;;;;;;;;;;;;22.19;39.45;101378.78;4970197;28;97998;-88
2021/10/06 12:19:53;;;;;;;;;;;;;;;21.65;39.94;101377.41;4995269;28;98771;-86
2021/10/06 12:22:20;;;;;;;;;;;;;;;22.27;39.26;101372.84;4999183;28;97601;-90
2021/10/06 12:24:46;;;;;;;;;;;;;;;22.27;39.21;101384.47;4996607;28;96600;-91
2021/10/06 12:27:25;;;;;;;;;;;;;;;22.33;39.42;101391.22;4991860;28;98235;-88
2021/10/06 12:32:59;;;;;;;;;;;;;;;22.29;38.67;101384.38;4995979;28;96166;-90
2021/10/06 12:35:41;;;;;;;;;;;;;;;22.24;39.23;101395.47;4974692;28;96927;-88
2021/10/06 12:38:08;;;;;;;;;;;;;;;22.19;39.67;101392.25;4996918;28;99147;-87
2021/10/06 12:40:36;;;;;;;;;;;;;;;22.35;38.84;101391.13;4995809;28;99692;-89
2021/10/06 12:46:00;;;;;;;;;;;;;;;22.13;38.79;101399.91;4992648;28;96986;-88
2021/10/06 12:48:33;;;;;;;;;;;;;;;22.12;38.46;101400.91;4988922;28;99729;-93
2021/10/06 12:56:29;;;;;;;;;;;;;;;22.12;39.03;101409.00;5010373;22;96714;-90
2021/10/06 12:58:58;;;;;;;;;;;;;;;22.05;38.70;101416.66;4976120;28;98055;-90
2021/10/06 13:01:37;;;;;;;;;;;;;;;22.44;38.26;101412.84;4998199;28;97248;-91
2021/10/06 13:04:14;;;;;;;;;;;;;;;22.54;37.69;101407.63;4998943;28;96073;-92
2021/10/06 13:07:16;;;;;;;;;;;;;;;22.83;36.95;101413.53;4991639;28;96499;-90
2021/10/06 13:10:08;;;;;;;;;;;;;;;22.75;37.35;101418.66;4955535;28;97068;-82
2021/10/06 13:12:34;;;;;;;;;;;;;;;22.82;37.13;101417.22;4989623;28;97999;-90
2021/10/06 13:15:01;;;;;;;;;;;;;;;22.59;37.17;101416.22;4998179;28;96752;-91
2021/10/06 13:17:32;;;;;;;;;;;;;;;22.43;37.64;101426.41;4993886;28;96890;-90
2021/10/06 13:20:01;;;;;;;;;;;;;;;22.49;38.15;101432.22;4997500;28;98401;-92
2021/10/06 13:23:02;;;;;;;;;;;;;;;22.09;38.66;101428.03;5002455;28;96784;-86
2021/10/06 13:25:38;;;;;;;;;;;;;;;22.02;39.39;101426.75;4983011;28;96734;-93
2021/10/06 13:30:48;;;;;;;;;;;;;;;22.21;38.92;101440.59;4999400;28;96615;-93
2021/10/06 13:33:16;;;;;;;;;;;;;;;21.63;39.16;101434.00;4999994;28;96742;-90
2021/10/06 13:35:42;;;;;;;;;;;;;;;21.79;39.40;101442.69;5001202;28;97079;-89
2021/10/06 13:38:08;;;;;;;;;;;;;;;21.86;39.16;101449.34;5000810;28;96238;-92
2021/10/06 13:40:36;;;;;;;;;;;;;;;21.67;39.63;101438.19;5001105;28;98358;-86
2021/10/06 13:45:44;;;;;;;;;;;;;;;21.67;39.90;101448.06;5000382;28;97267;-84
2021/10/06 13:53:35;;;;;;;;;;;;;;;21.57;40.86;101458.63;4990310;28;98891;-80
2021/10/06 13:56:04;;;;;;;;;;;;;;;21.59;41.34;101458.53;5002334;28;96021;-80
2021/10/06 13:58:31;;;;;;;;;;;;;;;21.60;40.92;101466.47;4999810;28;97612;-87
2021/10/06 14:00:58;;;;;;;;;;;;;;;21.94;40.43;101470.31;4993076;28;99512;-87
2021/10/06 14:03:35;;;;;;;;;;;;;;;22.09;39.81;101465.72;4994204;28;98902;-84
2021/10/06 14:06:03;;;;;;;;;;;;;;;22.16;39.19;101470.53;5003329;28;96247;-87
2021/10/06 14:08:30;;;;;;;;;;;;;;;22.41;39.01;101472.31;4999480;28;95951;-82
2021/10/06 14:13:58;;;;;;;;;;;;;;;22.51;38.40;101478.72;4985308;28;98743;-90
2021/10/06 14:16:28;;;;;;;;;;;;;;;22.61;38.57;101470.84;4997369;28;96492;-81
2021/10/06 14:18:55;;;;;;;;;;;;;;;22.83;38.73;101475.50;4997681;28;96271;-89
2021/10/06 14:21:22;;;;;;;;;;;;;;;22.58;38.41;101474.59;5002344;28;99364;-91
2021/10/06 14:23:56;;;;;;;;;;;;;;;22.58;38.91;101471.91;4996764;28;97663;-87